Relevés horaires Semmerzake (Belgique)


Relevés horaires à Semmerzake - Vendredi 22 Janv. 2021
Heure UTC1 Température [°C] Vent [km/h] Hum. [%] Pres.4 [hPa] Visi. [Km] Nébu. [octa] Préc.5 [mm] Cond.
2m. Res. Ros. Dir.2 Vit. Moy. Raf.3
23:00 4.0 2.1 2.3 S 7.4 -- 11.1 89 997.6(1.1/3h) 16 -- -- NA
22:00 3.6 1.7 1.9 S 7.4 -- 11.1 89 997.4(0.9/3h) 16 -- -- --
21:00 3.3 1.3 1.7 S 7.4 -- 9.3 89 997.3(1.2/3h) 17 -- -- --
20:00 3.4 2 1.4 SSO 5.6 -- 7.4 87 996.4(1.5/3h) 17 -- -- --
19:00 3.7 2.4 1.5 SSO 5.6 -- 9.3 85 996.4(2.2/3h) 19 -- -- --
18:00 3.5 2.1 1.8 SSO 5.6 -- 9.3 89 995.6(1.8/3h) 19 -- -- --
17:00 4.1 4.1 2.1 NNO 3.7 -- 3.7 87 995(0.2/3h) 17 -- -- --
16:00 5.0 5.0 2.4 NNO 1.9 -- 5.6 83 994(-2.1/3h) 18 -- -- --
15:00 6.0 6.0 2.7 SO 3.7 -- 9.3 79 993.7(-2.0/3h) 19 -- -- --
14:00 6.6 5.7 0.8 SO 5.6 -- 9.3 66 994.9(0.8/3h) 18 -- -- --
13:00 6.6 5.7 2.5 SO 5.6 -- 9.3 75 996.2(0.8/3h) 19 -- -- --
12:00 5.3 4.2 3.3 SSO 5.6 -- 9.3 87 995.5(2.7/3h) 18 -- -- --
11:00 4.9 4.9 3.2 SO 3.7 -- 7.4 89 994.2(3.0/3h) 20 -- -- --
10:00 3.5 3.5 2.6 NNO 3.7 -- 7.4 94 995.6(5.4/3h) 16 -- -- --
09:00 3.0 1.6 2.2 SSO 5.6 -- 9.3 94 993.3(3.8/3h) 17 -- -- --
08:00 2.7 2.7 2.1 SO 3.7 -- 7.4 96 991.2(2.8/3h) 14 -- -- --
07:00 2.8 1.3 2.2 SO 5.6 -- 9.3 96 989.8(0.6/3h) 17 -- -- --
06:00 2.7 1.2 2.0 SSO 5.6 -- 13.0 95 989.3(1.3/3h) 16 -- 3/12h
--
05:00 2.6 1.1 2.0 SO 5.6 -- 11.1 96 988.3(0.3/3h) 17 -- -- --
04:00 3.5 2.1 2.5 SSO 5.6 -- 11.1 93 989.1(2.1/3h) 20 -- -- --
03:00 3.8 2.5 2.6 SO 5.6 -- 13.0 92 988(2.2/3h) 20 -- -- --
02:00 4.0 2.1 2.9 SSO 7.4 -- 11.1 93 988.2(4.4/3h) 20 -- -- --
01:00 4.0 2.7 3.0 SO 5.6 -- 7.4 93 987(4.3/3h) 20 -- -- --
00:00 3.9 3.9 2.7 ONO 3.7 -- 27.8 92 985.7(2.6/3h) 20 -- 3/6h
NA

1 Coordinated Universal Time. Actuellement il est 19:00 locale et 17:00 UTC.

2 Le vent souffle depuis la direction indiquée vers la direction oposée.

3 Les rafales max. sont disponible 40 min après l'heure du relevé.

4 Pour les stations d'altitude (plus de 600m) le géopotentiel du niveau le plus proche de la pression obligatoire est indiqué.

5 Les stations disposant d'un diffuseur peuvent indiquer "trace". Cela signifie que des précipitations ont touchés le sol mais que la quantité est inférieure à 0.1 mm.

Récapitulatif de la journée
Température [°C] Vent [km/h] Ensoleillement4 [h] Precipitations totale5 [mm] Pression [Hpa]
Min1 Max.2 Moy.3 Max. Min Max.
2.6 6.8 0 27.8 0 h 0 min 0 985.7 997.6

1 Température minimale relevée entre 18:00 UTC la veille et 18:00 UTC le jour donné.

2 Température maximale relevée entre 06:00 UTC le jour donné et 06:00 UTC le lendemain.

3 Vent moyen de la journée basé sur les relevés horaires.

4 Ensoleillement en heures relevé entre 06:00 UTC la veille et 06:00 UTC le jour donné.

5 Précipitations totales tombées entre 06:00 UTC la jour donné et 06:00 UTC le lendemain.

Graphiques horaires